Crooksville, Ohio
Current Conditions -  °F | °C
As of 8:53 PM on Sunday 21 Dec 2014 (Local Time) from KZZV Reporting Station
Clear Clear  
Wind Chill: 27°   Ceiling: Unl
Heat Index: 27°   Visibility: 7mi
Dew Point: 22°   Wind: 3mph
Humidity: 81%   Direction: 30°NNE
Pressure: 30.19"   Gusts: NA
Location:  39.77°N, 82.09°W
Report Text: KZZV 220153Z AUTO 03003KT 7SM CLR M03/M06 A3019 RMK AO2 SLP235 T10281056 $
Loading
Personal Weather Stations






























Interactive Weather Map New forecast layout! Learn more

10-Day Weather Forecast

Advertisements
Track Severe Weather on mobile